Time;durP1;ratioP1;P1;durP2;ratioP2;P2;SDS_P1;SDS_P2;PMS_P1;PMS_P2;Temp;Humidity;BMP_temperature;BMP_pressure;BME280_temperature;BME280_humidity;BME280_pressure;Samples;Min_cycle;Max_cycle;Signal;HPM_P1;HPM_P2
2022/05/07 00:01:57;;;;;;;10.02;5.22;;;;;;;11.58;69.86;97265.63;6275846;22;20016;-77
2022/05/07 00:04:25;;;;;;;7.80;4.78;;;;;;;11.51;69.75;97270.72;6276602;22;20031;-77
2022/05/07 00:06:54;;;;;;;6.18;4.35;;;;;;;11.43;69.48;97262.91;6275424;22;20094;-78
2022/05/07 00:09:23;;;;;;;5.93;4.97;;;;;;;11.39;69.82;97264.25;6276988;22;20023;-78
2022/05/07 00:11:51;;;;;;;7.40;5.57;;;;;;;11.36;69.64;97261.97;6276414;22;20020;-79
2022/05/07 00:14:18;;;;;;;8.63;5.30;;;;;;;11.30;69.80;97260.03;6276462;22;20016;-77
2022/05/07 00:19:36;;;;;;;6.03;4.75;;;;;;;11.30;69.79;97260.88;6193374;22;20027;-77
2022/05/07 00:22:05;;;;;;;5.35;4.85;;;;;;;11.34;72.44;97258.72;6278554;22;20016;-77
2022/05/07 00:24:33;;;;;;;7.15;4.70;;;;;;;11.38;71.65;97257.41;6278418;22;20016;-77
2022/05/07 00:27:00;;;;;;;7.15;4.45;;;;;;;11.40;70.78;97255.44;6278224;22;20068;-78
2022/05/07 00:29:28;;;;;;;7.22;4.00;;;;;;;11.39;70.37;97250.38;6280303;22;20019;-78
2022/05/07 00:31:55;;;;;;;8.25;4.90;;;;;;;11.35;69.77;97249.91;6279890;22;20026;-78
2022/05/07 00:34:24;;;;;;;5.00;4.20;;;;;;;11.33;70.13;97257.09;6282640;22;20054;-78
2022/05/07 00:36:52;;;;;;;7.00;4.57;;;;;;;11.28;69.62;97254.16;6279977;22;20026;-78
2022/05/07 00:39:21;;;;;;;5.85;5.00;;;;;;;11.23;69.58;97252.06;6279663;22;20089;-78
2022/05/07 00:41:48;;;;;;;5.90;5.07;;;;;;;11.19;69.42;97242.13;6280311;22;20459;-78
2022/05/07 00:44:16;;;;;;;5.35;4.85;;;;;;;11.19;70.15;97252.59;6281372;22;20019;-77
2022/05/07 00:46:49;;;;;;;9.45;5.22;;;;;;;11.16;69.62;97247.72;6280231;22;20024;-77
2022/05/07 00:49:17;;;;;;;5.53;4.30;;;;;;;11.09;69.57;97245.78;6281276;22;20031;-79
2022/05/07 00:51:45;;;;;;;6.55;4.85;;;;;;;11.02;69.52;97242.22;6281608;22;20050;-78
2022/05/07 00:54:12;;;;;;;10.32;5.63;;;;;;;10.99;69.63;97241.72;6281746;22;20030;-77
2022/05/07 00:56:42;;;;;;;7.90;5.45;;;;;;;10.94;69.81;97247.44;6281079;22;20023;-78
2022/05/07 00:59:10;;;;;;;6.20;5.30;;;;;;;10.89;69.71;97239.31;6280738;22;20023;-77
2022/05/07 01:01:37;;;;;;;6.88;5.07;;;;;;;10.88;70.22;97248.13;6281348;22;20046;-78
2022/05/07 01:04:05;;;;;;;10.23;5.72;;;;;;;10.94;72.16;97242.22;6282327;22;20023;-80
2022/05/07 01:37:26;;;;;;;10.10;5.57;;;;;;;10.39;70.74;97219.53;6263692;22;20108;-79
2022/05/07 01:39:54;;;;;;;6.22;4.85;;;;;;;10.36;70.82;97220.66;6277053;22;20527;-79
2022/05/07 01:42:25;;;;;;;6.30;4.93;;;;;;;10.34;70.82;97221.81;6278473;22;20027;-79
2022/05/07 01:45:10;;;;;;;9.32;5.28;;;;;;;10.34;71.08;97221.81;6250583;22;20402;-80
2022/05/07 03:36:02;;;;;;;9.25;7.10;;;;;;;9.52;71.56;97211.31;6283792;22;19999;-79
2022/05/07 03:38:55;;;;;;;7.68;6.32;;;;;;;9.49;72.16;97215.88;6275932;22;20099;-79
2022/05/07 03:41:53;;;;;;;10.00;6.35;;;;;;;9.49;71.79;97213.28;6268835;22;20026;-80
2022/05/07 03:50:41;;;;;;;8.83;7.40;;;;;;;9.36;72.07;97220.72;6244297;22;20008;-80
2022/05/07 04:54:09;;;;;;;12.25;8.32;;;;;;;9.00;72.20;97254.75;6266832;22;20091;-76
2022/05/07 04:56:37;;;;;;;11.55;8.98;;;;;;;8.98;72.27;97253.28;6274298;22;20023;-76
2022/05/07 04:59:04;;;;;;;10.75;9.73;;;;;;;8.96;72.77;97253.41;6277481;22;20035;-76
2022/05/07 05:01:32;;;;;;;11.00;8.57;;;;;;;8.96;72.80;97256.03;6286755;22;20019;-76
2022/05/07 05:03:59;;;;;;;13.48;8.82;;;;;;;8.95;72.89;97254.41;6292716;22;20099;-75
2022/05/07 05:06:28;;;;;;;11.52;7.95;;;;;;;8.97;73.25;97257.66;6291256;22;20032;-76
2022/05/07 05:08:56;;;;;;;11.30;8.10;;;;;;;9.00;73.07;97265.16;6284151;22;20024;-76
2022/05/07 05:11:25;;;;;;;12.43;7.78;;;;;;;9.07;73.19;97262.75;6277889;22;20463;-76
2022/05/07 05:13:52;;;;;;;10.65;7.90;;;;;;;9.18;73.46;97259.03;6277579;22;20016;-76
2022/05/07 05:16:20;;;;;;;10.55;7.90;;;;;;;9.30;74.55;97265.63;6276391;22;20110;-76
2022/05/07 05:18:48;;;;;;;9.52;8.55;;;;;;;9.38;73.68;97264.81;6277576;22;20023;-76
2022/05/07 05:21:15;;;;;;;8.77;7.53;;;;;;;9.47;75.89;97274.31;6277547;22;20031;-76
2022/05/07 05:23:46;;;;;;;8.35;7.53;;;;;;;9.57;76.60;97274.16;6277321;22;20030;-76
2022/05/07 05:26:14;;;;;;;9.00;7.40;;;;;;;9.64;75.41;97268.16;6276285;22;20026;-76
2022/05/07 05:28:43;;;;;;;9.23;8.00;;;;;;;9.74;76.60;97269.81;6277576;22;20020;-76
2022/05/07 05:31:11;;;;;;;10.05;8.13;;;;;;;9.85;78.09;97277.31;6277292;22;20024;-76
2022/05/07 05:33:38;;;;;;;14.20;9.60;;;;;;;9.96;78.79;97278.81;6277113;22;20016;-76
2022/05/07 05:36:06;;;;;;;15.80;9.65;;;;;;;10.03;78.74;97279.78;6276680;22;20030;-76
2022/05/07 05:38:33;;;;;;;10.52;8.93;;;;;;;10.10;79.53;97288.56;6277553;22;20463;-76
2022/05/07 05:41:02;;;;;;;9.25;7.93;;;;;;;10.16;80.05;97285.31;6277767;22;20028;-76
2022/05/07 05:43:30;;;;;;;9.27;8.38;;;;;;;10.21;79.65;97283.06;6276758;22;20012;-76
2022/05/07 05:45:57;;;;;;;11.90;8.68;;;;;;;10.20;76.48;97289.25;6276163;22;20490;-76
2022/05/07 05:48:29;;;;;;;10.75;7.55;;;;;;;10.17;75.87;97286.97;6276845;22;20016;-75
2022/05/07 05:50:56;;;;;;;7.25;6.55;;;;;;;10.23;77.43;97290.72;6276773;22;20016;-76
2022/05/07 05:53:24;;;;;;;10.32;9.18;;;;;;;10.33;79.29;97296.63;6276552;22;20020;-76
2022/05/07 05:55:52;;;;;;;9.93;7.95;;;;;;;10.41;79.30;97296.63;6276372;22;20026;-76
2022/05/07 05:58:21;;;;;;;10.40;9.23;;;;;;;10.49;79.76;97295.78;6276859;22;20026;-76
2022/05/07 06:00:50;;;;;;;11.02;9.20;;;;;;;10.57;80.01;97295.78;6276888;22;20031;-77
2022/05/07 06:03:17;;;;;;;13.02;9.50;;;;;;;10.62;78.90;97296.09;6276358;22;20024;-76
2022/05/07 06:05:45;;;;;;;9.80;8.43;;;;;;;10.69;79.16;97288.44;6276503;22;20031;-78
2022/05/07 06:08:14;;;;;;;15.10;10.52;;;;;;;10.74;77.66;97285.34;6275498;22;20038;-76
2022/05/07 06:10:41;;;;;;;14.43;9.48;;;;;;;10.72;75.79;97291.53;6276375;22;20065;-76
2022/05/07 06:13:09;;;;;;;11.52;8.57;;;;;;;10.74;75.34;97287.97;6276351;22;20039;-78
2022/05/07 06:15:38;;;;;;;10.90;9.35;;;;;;;10.76;74.24;97280.75;6276008;22;20046;-78
2022/05/07 06:18:06;;;;;;;14.57;9.55;;;;;;;10.79;73.99;97285.66;6275601;22;20041;-78
2022/05/07 06:20:33;;;;;;;10.55;9.20;;;;;;;10.87;74.98;97285.66;6275922;22;20016;-76
2022/05/07 06:23:01;;;;;;;14.40;9.35;;;;;;;10.98;74.22;97282.69;6276341;22;20026;-79
2022/05/07 06:28:14;;;;;;;15.25;10.85;;;;;;;11.11;73.11;97284.78;6275582;22;20016;-78
2022/05/07 06:30:43;;;;;;;9.77;8.43;;;;;;;11.20;72.49;97288.19;6276117;22;20024;-79
2022/05/07 06:33:10;;;;;;;11.55;10.05;;;;;;;11.29;72.26;97284.53;6275872;22;20020;-79
2022/05/07 06:35:38;;;;;;;10.05;9.02;;;;;;;11.40;72.04;97285.97;6275970;22;20030;-78
2022/05/07 06:38:06;;;;;;;11.93;9.13;;;;;;;11.48;71.98;97286.75;6274778;22;20020;-78
2022/05/07 06:40:33;;;;;;;12.38;8.60;;;;;;;11.62;72.01;97284.41;6276148;22;20016;-78
2022/05/07 06:43:01;;;;;;;11.25;9.23;;;;;;;11.74;71.81;97286.47;6276007;22;20019;-78
2022/05/07 06:45:28;;;;;;;10.57;8.63;;;;;;;11.87;71.20;97288.50;6276075;22;20024;-79
2022/05/07 06:47:57;;;;;;;12.93;9.77;;;;;;;12.02;72.74;97287.78;6274857;22;20555;-76
2022/05/07 06:50:25;;;;;;;11.82;8.85;;;;;;;12.16;71.51;97292.28;6276088;22;20027;-75
2022/05/07 06:52:52;;;;;;;10.68;8.35;;;;;;;12.29;70.47;97284.66;6275545;22;20054;-76
2022/05/07 06:55:20;;;;;;;13.45;9.63;;;;;;;12.43;70.00;97290.91;6276220;22;20027;-76
2022/05/07 06:57:48;;;;;;;12.20;9.15;;;;;;;12.57;69.77;97291.94;6276018;22;20020;-76
2022/05/07 07:00:35;;;;;;;11.45;8.52;;;;;;;12.71;68.92;97293.78;6276373;22;20459;-76
2022/05/07 07:03:04;;;;;;;14.10;9.02;;;;;;;12.83;69.00;97290.72;6275990;22;20027;-76
2022/05/07 07:05:32;;;;;;;11.73;8.80;;;;;;;12.94;68.20;97287.66;6275401;22;20463;-76
2022/05/07 07:07:59;;;;;;;10.90;9.43;;;;;;;13.05;68.66;97287.19;6275233;22;20355;-76
2022/05/07 07:10:27;;;;;;;10.68;9.57;;;;;;;13.18;70.89;97278.72;6276225;22;20019;-76
2022/05/07 07:12:54;;;;;;;10.00;8.98;;;;;;;13.31;71.08;97288.59;6291297;22;20459;-76
2022/05/07 07:15:23;;;;;;;10.65;8.82;;;;;;;13.43;70.99;97284.53;6294853;22;20004;-77
2022/05/07 07:17:51;;;;;;;15.45;9.93;;;;;;;13.53;68.93;97279.78;6292478;22;20024;-77
2022/05/07 07:20:20;;;;;;;13.75;9.65;;;;;;;13.65;69.05;97279.34;6279322;22;20033;-75
2022/05/07 07:22:47;;;;;;;9.98;8.85;;;;;;;13.75;67.14;97275.44;6275362;22;20026;-76
2022/05/07 07:25:15;;;;;;;10.88;9.65;;;;;;;13.87;68.48;97278.38;6275889;22;20026;-76
2022/05/07 07:27:42;;;;;;;9.80;8.73;;;;;;;13.98;67.00;97275.25;6274570;22;20525;-75
2022/05/07 07:30:11;;;;;;;12.05;8.25;;;;;;;14.11;66.18;97279.00;6275415;22;20359;-75
2022/05/07 07:32:39;;;;;;;8.73;7.63;;;;;;;14.26;65.42;97282.38;6274959;22;20095;-75
2022/05/07 07:35:08;;;;;;;9.05;7.90;;;;;;;14.41;66.89;97280.50;6274896;22;20452;-75
2022/05/07 07:37:37;;;;;;;10.70;8.30;;;;;;;14.57;67.63;97278.63;6274273;22;20480;-75
2022/05/07 07:40:05;;;;;;;8.85;7.38;;;;;;;14.70;64.54;97275.28;6275886;22;20024;-75
2022/05/07 07:42:33;;;;;;;7.80;6.90;;;;;;;14.82;63.23;97269.31;6275982;22;20015;-74
2022/05/07 07:47:59;;;;;;;7.25;5.82;;;;;;;15.18;62.08;97275.41;6276420;22;20030;-77
2022/05/07 07:50:30;;;;;;;6.80;5.88;;;;;;;15.36;60.40;97267.78;6278270;22;20062;-77
2022/05/07 07:53:01;;;;;;;10.65;6.25;;;;;;;15.49;61.11;97266.22;6276745;22;20024;-76
2022/05/07 07:55:29;;;;;;;10.00;6.25;;;;;;;15.57;61.25;97272.13;6275388;22;20364;-76
2022/05/07 07:57:58;;;;;;;7.15;6.30;;;;;;;15.63;60.63;97267.88;6274553;22;20049;-76
2022/05/07 08:00:27;;;;;;;9.20;6.25;;;;;;;15.69;61.23;97266.28;6275551;22;20034;-76
2022/05/07 08:02:56;;;;;;;8.48;6.70;;;;;;;15.73;62.25;97251.78;6276017;22;20020;-77
2022/05/07 08:05:26;;;;;;;7.13;6.15;;;;;;;15.79;60.22;97256.25;6275437;22;20070;-76
2022/05/07 08:13:27;;;;;;;8.38;6.60;;;;;;;16.01;61.40;97257.72;6275754;22;20023;-77
2022/05/07 08:15:55;;;;;;;6.53;5.93;;;;;;;16.08;60.25;97260.34;6278277;22;20042;-77
2022/05/07 08:18:22;;;;;;;8.75;6.22;;;;;;;16.18;59.35;97259.94;6275270;22;20020;-77
2022/05/07 08:20:50;;;;;;;10.48;6.72;;;;;;;16.29;58.42;97262.00;6275048;22;20028;-77
2022/05/07 08:23:17;;;;;;;7.15;6.45;;;;;;;16.39;58.33;97267.66;6275145;22;20468;-77
2022/05/07 08:25:46;;;;;;;6.85;6.13;;;;;;;16.51;58.13;97265.25;6274741;22;20026;-77
2022/05/07 08:28:14;;;;;;;6.18;5.63;;;;;;;16.62;57.83;97266.47;6275386;22;20359;-77
2022/05/07 08:30:44;;;;;;;9.88;6.50;;;;;;;16.74;57.38;97266.63;6275125;22;20038;-77
2022/05/07 08:33:12;;;;;;;6.20;5.63;;;;;;;16.84;57.04;97253.91;6275369;22;20031;-77
2022/05/07 08:35:40;;;;;;;7.32;6.43;;;;;;;16.94;55.78;97266.63;6287682;22;20038;-78
2022/05/07 08:38:07;;;;;;;9.55;6.32;;;;;;;17.02;55.71;97263.78;6286974;22;20030;-78
2022/05/07 08:40:35;;;;;;;8.95;6.28;;;;;;;17.11;55.20;97262.56;6283094;22;20020;-77
2022/05/07 08:43:05;;;;;;;10.55;6.40;;;;;;;17.20;54.26;97261.31;6277264;22;20127;-77
2022/05/07 08:45:33;;;;;;;10.10;6.60;;;;;;;17.30;54.61;97259.03;6276870;22;20020;-78
2022/05/07 08:48:01;;;;;;;6.75;6.05;;;;;;;17.38;53.85;97254.53;6276552;22;20019;-77
2022/05/07 08:50:28;;;;;;;9.73;6.05;;;;;;;17.47;53.93;97261.19;6276959;22;20030;-77
2022/05/07 08:52:56;;;;;;;6.15;5.55;;;;;;;17.57;54.12;97258.13;6277040;22;20026;-77
2022/05/07 08:55:24;;;;;;;9.60;6.30;;;;;;;17.64;53.94;97257.06;6277239;22;20375;-77
2022/05/07 08:57:52;;;;;;;6.07;5.45;;;;;;;17.76;53.05;97256.44;6276385;22;20025;-77
2022/05/07 09:00:23;;;;;;;7.30;5.50;;;;;;;17.86;52.56;97267.34;6277237;22;20414;-77
2022/05/07 09:02:52;;;;;;;7.50;5.60;;;;;;;17.95;54.27;97252.91;6277177;22;20034;-77
2022/05/07 09:05:22;;;;;;;7.55;5.97;;;;;;;18.02;50.84;97245.75;6276851;22;20039;-77
2022/05/07 09:07:54;;;;;;;10.45;6.03;;;;;;;18.11;50.71;97249.72;6276443;22;20368;-77
2022/05/07 09:10:26;;;;;;;8.10;5.68;;;;;;;18.20;49.47;97249.47;6277106;22;20026;-78
2022/05/07 09:12:54;;;;;;;8.35;5.80;;;;;;;18.27;49.32;97251.03;6277073;22;20336;-77
2022/05/07 09:15:24;;;;;;;8.65;5.72;;;;;;;18.33;49.33;97252.81;6277132;22;20020;-77
2022/05/07 09:17:52;;;;;;;9.27;6.03;;;;;;;18.38;50.85;97246.88;6275913;22;20513;-77
2022/05/07 09:20:21;;;;;;;7.32;5.45;;;;;;;18.45;50.05;97245.00;6277104;22;20020;-78
2022/05/07 09:22:50;;;;;;;8.15;5.97;;;;;;;18.49;48.69;97240.91;6276998;22;20034;-78
2022/05/07 09:25:22;;;;;;;9.40;6.18;;;;;;;18.51;47.86;97244.13;6276923;22;20377;-78
2022/05/07 09:27:52;;;;;;;8.02;5.93;;;;;;;18.52;47.82;97251.06;6275775;22;20027;-77
2022/05/07 09:30:25;;;;;;;9.85;5.30;;;;;;;18.49;46.18;97248.03;6277049;22;20042;-78
2022/05/07 09:32:55;;;;;;;8.57;6.00;;;;;;;18.47;47.31;97244.78;6277340;22;20462;-77
2022/05/07 09:38:12;;;;;;;7.28;5.47;;;;;;;18.49;46.85;97245.38;6276975;22;20020;-77
2022/05/07 09:40:40;;;;;;;7.63;5.03;;;;;;;18.54;47.49;97248.19;6277539;22;20024;-79
2022/05/07 09:43:09;;;;;;;7.72;5.03;;;;;;;18.62;46.86;97249.75;6276697;22;20027;-79
2022/05/07 09:45:39;;;;;;;13.93;5.40;;;;;;;18.70;47.77;97244.19;6276088;22;20020;-79
2022/05/07 09:48:08;;;;;;;8.95;5.65;;;;;;;18.77;47.97;97241.50;6276273;22;20046;-79
2022/05/07 09:50:46;;;;;;;7.95;5.93;;;;;;;18.82;47.56;97236.38;6278400;22;20021;-79
2022/05/07 09:58:47;;;;;;;5.90;5.13;;;;;;;18.84;47.30;97231.69;6283022;22;20016;-81
2022/05/07 10:01:41;;;;;;;7.75;5.07;;;;;;;18.88;47.15;97238.16;6290637;22;20106;-79
2022/05/07 10:04:24;;;;;;;9.20;5.50;;;;;;;18.88;46.31;97232.88;6277830;22;20026;-79
2022/05/07 10:07:07;;;;;;;6.38;5.72;;;;;;;18.88;46.17;97233.66;6279056;22;20027;-79
2022/05/07 10:09:43;;;;;;;8.65;5.38;;;;;;;18.87;46.45;97218.84;6276923;22;20408;-79
2022/05/07 10:12:17;;;;;;;7.70;4.95;;;;;;;18.88;45.82;97223.09;6276867;22;20395;-80
2022/05/07 10:14:45;;;;;;;7.45;5.95;;;;;;;18.90;46.83;97220.25;6280611;22;20020;-80
2022/05/07 10:17:15;;;;;;;6.50;4.97;;;;;;;18.94;46.17;97224.06;6277762;22;20042;-80
2022/05/07 10:19:44;;;;;;;7.32;5.60;;;;;;;18.98;45.50;97221.78;6277790;22;20012;-77
2022/05/07 10:22:17;;;;;;;11.85;5.70;;;;;;;19.04;46.02;97223.53;6276160;22;20026;-77
2022/05/07 10:24:45;;;;;;;6.72;5.03;;;;;;;19.07;46.07;97221.28;6276387;22;20468;-78
2022/05/07 10:27:22;;;;;;;9.30;5.68;;;;;;;19.12;45.61;97223.25;6275535;22;20018;-77
2022/05/07 10:29:50;;;;;;;9.63;5.35;;;;;;;19.16;45.40;97215.69;6276310;22;20020;-77
2022/05/07 10:32:22;;;;;;;11.05;6.00;;;;;;;19.22;44.36;97225.38;6275633;22;20026;-78
2022/05/07 10:34:51;;;;;;;;;;;;;;;19.26;45.66;97219.44;6279180;22;20027;-78
2022/05/07 10:37:19;;;;;;;9.05;5.70;;;;;;;19.31;45.54;97214.28;6274996;22;19915;-79
2022/05/07 10:39:53;;;;;;;9.32;5.88;;;;;;;19.37;43.74;97214.41;6276820;22;20022;-79
2022/05/07 10:42:22;;;;;;;7.53;6.15;;;;;;;19.40;44.26;97213.97;6276341;22;20051;-75
2022/05/07 10:44:50;;;;;;;16.95;7.20;;;;;;;19.42;44.30;97214.56;6276215;22;20026;-75
2022/05/07 10:47:20;;;;;;;6.38;5.72;;;;;;;19.46;43.57;97210.41;6275039;22;20016;-75
2022/05/07 10:49:55;;;;;;;16.38;5.68;;;;;;;19.52;44.30;97206.88;6276184;22;20351;-78
2022/05/07 10:52:33;;;;;;;11.23;5.25;;;;;;;19.67;42.77;97204.66;6274954;22;20023;-72
2022/05/07 10:55:09;;;;;;;6.22;4.82;;;;;;;19.83;44.00;97205.06;6273576;22;20020;-76
2022/05/07 10:57:38;;;;;;;9.80;6.57;;;;;;;19.85;43.31;97197.72;6274936;22;20028;-75
2022/05/07 11:00:11;;;;;;;16.40;6.28;;;;;;;19.84;43.33;97190.81;6276080;22;20521;-76
2022/05/07 11:36:08;;;;;;;7.00;4.70;;;;;;;19.49;43.90;97175.59;6282221;22;20026;-81
2022/05/07 11:47:34;;;;;;;7.68;5.60;;;;;;;19.56;43.09;97165.72;6284895;22;20039;-79
2022/05/07 13:05:49;;;;;;;6.13;4.65;;;;;;;19.42;42.88;97146.59;6292896;22;20020;-81
2022/05/07 13:11:00;;;;;;;6.00;5.05;;;;;;;19.43;42.36;97142.09;6273971;22;20059;-79
2022/05/07 13:21:35;;;;;;;6.32;4.65;;;;;;;19.50;40.70;97135.69;6261947;22;20078;-79
2022/05/07 13:35:01;;;;;;;5.55;4.93;;;;;;;19.67;44.67;97122.59;6268336;22;20027;-79
2022/05/07 13:37:49;;;;;;;6.70;5.10;;;;;;;19.70;41.35;97124.84;6275048;22;20063;-80
2022/05/07 13:40:38;;;;;;;6.00;4.53;;;;;;;19.73;41.15;97116.44;6275092;22;20020;-79
2022/05/07 13:45:56;;;;;;;5.65;4.97;;;;;;;19.80;41.37;97112.88;6271588;22;20004;-84
2022/05/07 13:51:48;;;;;;;5.38;4.43;;;;;;;19.79;40.90;97105.97;6264419;22;20031;-82
2022/05/07 14:37:59;;;;;;;4.40;4.00;;;;;;;20.07;39.34;97087.59;6270547;22;20007;-81
2022/05/07 14:40:32;;;;;;;4.13;3.83;;;;;;;20.10;39.85;97089.78;6274717;22;20069;-81
2022/05/07 14:43:02;;;;;;;4.75;3.45;;;;;;;20.12;38.80;97079.75;6274555;22;20028;-81
2022/05/07 14:45:31;;;;;;;16.55;4.28;;;;;;;20.13;38.94;97086.66;6274774;22;20014;-81
2022/05/07 14:48:01;;;;;;;7.32;4.25;;;;;;;20.15;37.76;97079.28;6274327;22;20020;-81
2022/05/07 14:50:30;;;;;;;6.55;3.45;;;;;;;20.15;37.82;97073.97;6274619;22;20061;-81
2022/05/07 14:53:04;;;;;;;3.75;3.08;;;;;;;20.20;39.03;97080.44;6274371;22;20075;-81
2022/05/07 14:55:33;;;;;;;4.88;3.15;;;;;;;20.23;38.60;97080.00;6274560;22;20008;-80
2022/05/07 14:58:02;;;;;;;5.25;3.72;;;;;;;20.26;38.10;97076.88;6274256;22;20008;-80
2022/05/07 15:00:30;;;;;;;5.30;3.30;;;;;;;20.28;38.92;97086.19;6274554;22;20064;-80
2022/05/07 15:02:59;;;;;;;4.00;3.60;;;;;;;20.28;38.62;97077.44;6274111;22;20066;-81
2022/05/07 15:05:28;;;;;;;4.22;3.70;;;;;;;20.28;38.12;97072.16;6274420;22;20035;-80
2022/05/07 15:10:35;;;;;;;5.55;3.72;;;;;;;20.29;38.04;97071.09;6273995;22;20000;-80
2022/05/07 15:10:45;;;;;;;5.32;3.28;;;;;;;20.28;37.62;97070.28;6274124;22;20000;-80
2022/05/07 15:13:14;;;;;;;3.40;3.10;;;;;;;20.26;37.63;97079.50;6274217;22;20004;-80
2022/05/07 15:15:42;;;;;;;4.50;3.40;;;;;;;20.25;38.01;97067.31;6274302;22;20007;-80
2022/05/07 15:18:11;;;;;;;7.75;4.00;;;;;;;20.24;37.58;97068.34;6272783;22;20015;-81
2022/05/07 15:20:39;;;;;;;6.15;3.72;;;;;;;20.22;37.71;97067.75;6273433;22;20035;-80
2022/05/07 15:23:08;;;;;;;6.63;4.30;;;;;;;20.17;37.50;97065.81;6272969;22;20029;-80
2022/05/07 15:25:36;;;;;;;6.07;4.18;;;;;;;20.15;37.58;97073.97;6273006;22;20038;-80
2022/05/07 15:28:06;;;;;;;5.25;4.50;;;;;;;20.11;37.57;97062.22;6272595;22;20012;-80
2022/05/07 15:30:35;;;;;;;5.32;4.82;;;;;;;20.08;37.88;97062.72;6274552;22;20015;-80
2022/05/07 15:38:41;;;;;;;4.15;3.75;;;;;;;20.06;38.92;97069.28;6305312;22;20020;-81
2022/05/07 15:41:11;;;;;;;3.80;3.50;;;;;;;20.02;38.58;97074.22;6305241;22;20038;-81
2022/05/07 15:43:41;;;;;;;5.88;3.80;;;;;;;19.98;38.47;97067.75;6305057;22;20019;-82
2022/05/07 15:46:22;;;;;;;7.00;3.78;;;;;;;19.95;38.24;97062.94;6305102;22;20023;-81
2022/05/07 15:48:51;;;;;;;3.92;3.53;;;;;;;19.93;38.57;97060.50;6305285;22;20011;-80
2022/05/07 15:51:21;;;;;;;20.85;8.00;;;;;;;19.91;38.61;97065.22;6305446;22;20027;-81
2022/05/07 15:53:50;;;;;;;11.32;6.25;;;;;;;19.89;38.70;97062.00;6304915;22;20027;-81
2022/05/07 15:56:20;;;;;;;7.63;3.72;;;;;;;19.87;38.72;97055.34;6302472;22;20030;-81
2022/05/07 15:58:54;;;;;;;11.68;5.78;;;;;;;19.86;38.43;97061.69;6305051;22;20019;-81
2022/05/07 16:01:23;;;;;;;6.82;4.50;;;;;;;19.81;38.70;97056.25;6304748;22;20003;-83
2022/05/07 16:03:52;;;;;;;5.90;3.78;;;;;;;19.78;38.67;97051.41;6305328;22;20052;-80
2022/05/07 16:06:21;;;;;;;5.20;4.32;;;;;;;19.74;38.75;97062.47;6305017;22;20012;-81
2022/05/07 16:08:53;;;;;;;5.20;3.80;;;;;;;19.69;38.75;97065.00;6305302;22;20023;-81
2022/05/07 16:11:22;;;;;;;5.70;3.45;;;;;;;19.67;39.18;97059.09;6279570;22;20014;-81
2022/05/07 16:13:53;;;;;;;5.07;3.92;;;;;;;19.66;39.44;97061.97;6304886;22;20007;-81
2022/05/07 16:16:28;;;;;;;5.05;3.90;;;;;;;19.65;39.68;97058.50;6304630;22;20012;-81
2022/05/07 16:18:59;;;;;;;5.30;4.05;;;;;;;19.63;39.54;97057.91;6305161;22;20037;-81
2022/05/07 16:21:28;;;;;;;4.90;4.35;;;;;;;19.62;39.99;97056.31;6305268;22;20007;-82
2022/05/07 16:26:43;;;;;;;4.88;3.80;;;;;;;19.56;39.59;97054.59;6304760;22;20030;-80
2022/05/07 16:29:20;;;;;;;5.18;3.75;;;;;;;19.52;39.46;97053.41;6304841;22;20004;-82
2022/05/07 16:31:53;;;;;;;6.13;3.80;;;;;;;19.50;39.83;97058.97;6305024;22;20019;-81
2022/05/07 16:34:23;;;;;;;6.63;4.47;;;;;;;19.48;39.49;97054.91;6304940;22;20058;-80
2022/05/07 16:36:52;;;;;;;5.88;4.05;;;;;;;19.45;39.51;97050.88;6304413;22;20007;-80
2022/05/07 16:39:22;;;;;;;6.15;4.38;;;;;;;19.44;39.63;97056.38;6305024;22;20048;-80
2022/05/07 16:41:51;;;;;;;4.45;3.75;;;;;;;19.43;39.67;97057.44;6304775;22;20022;-81
2022/05/07 16:44:22;;;;;;;6.95;4.10;;;;;;;19.43;40.03;97052.16;6304724;22;20018;-81
2022/05/07 16:46:51;;;;;;;4.85;3.85;;;;;;;19.42;40.04;97051.34;6304815;22;20008;-82
2022/05/07 16:49:29;;;;;;;4.85;4.32;;;;;;;19.42;39.70;97054.00;6304458;22;20023;-83
2022/05/07 16:51:59;;;;;;;5.85;4.47;;;;;;;19.41;40.84;97052.38;6305003;22;20000;-81
2022/05/07 16:54:30;;;;;;;8.20;4.20;;;;;;;19.43;41.11;97049.50;6290494;22;20078;-79
2022/05/07 17:03:53;;;;;;;4.53;4.05;;;;;;;19.34;40.68;97060.41;6283916;22;20039;-80
2022/05/07 17:06:35;;;;;;;5.53;4.88;;;;;;;19.34;41.85;97060.41;6232587;23;20055;-75
2022/05/07 17:09:04;;;;;;;13.45;4.45;;;;;;;19.33;42.88;97064.09;6246234;23;20020;-75
2022/05/07 17:11:31;;;;;;;5.75;4.00;;;;;;;19.33;42.53;97064.09;6246103;23;20472;-75
2022/05/07 17:13:59;;;;;;;4.72;4.07;;;;;;;19.30;41.64;97061.88;6250780;22;20024;-80
2022/05/07 17:21:39;;;;;;;4.10;3.70;;;;;;;19.24;41.02;97070.75;6246867;23;20035;-81
2022/05/07 17:24:07;;;;;;;6.75;4.82;;;;;;;19.23;40.90;97066.47;6236081;23;20016;-80
2022/05/07 17:26:36;;;;;;;6.13;4.50;;;;;;;19.21;41.25;97062.44;6215866;23;20016;-80
2022/05/07 17:29:03;;;;;;;4.57;4.07;;;;;;;19.19;41.50;97064.50;6216878;23;20020;-80
2022/05/07 17:31:31;;;;;;;6.00;4.70;;;;;;;19.16;41.23;97060.47;6220984;23;20024;-80
2022/05/07 17:33:59;;;;;;;6.53;5.22;;;;;;;19.14;41.69;97062.53;6242613;22;20054;-80
2022/05/07 17:36:27;;;;;;;4.90;4.22;;;;;;;19.12;41.86;97059.31;6240417;23;20045;-81
2022/05/07 17:38:56;;;;;;;9.25;4.47;;;;;;;19.09;41.84;97055.28;6225800;23;20020;-79
2022/05/07 17:41:24;;;;;;;5.43;4.50;;;;;;;19.06;42.21;97058.34;6219003;23;20021;-80
2022/05/07 17:43:52;;;;;;;6.32;4.85;;;;;;;19.04;42.55;97062.25;6219043;23;20020;-80
2022/05/07 17:46:20;;;;;;;6.43;4.55;;;;;;;19.00;43.44;97066.38;6217787;23;20021;-80
2022/05/07 18:08:40;;;;;;;9.25;7.00;;;;;;;18.23;49.72;97080.03;6262643;22;20022;-78
2022/05/07 18:11:07;;;;;;;7.15;6.45;;;;;;;18.14;50.00;97078.72;6279547;22;20019;-78
2022/05/07 18:43:14;;;;;;;10.27;8.25;;;;;;;17.40;53.71;97099.56;6279070;22;20024;-78
2022/05/07 18:45:42;;;;;;;8.40;7.55;;;;;;;17.34;54.06;97095.13;6248033;23;20016;-81
2022/05/07 19:39:05;;;;;;;8.73;7.82;;;;;;;16.25;56.87;97132.59;6273538;22;20016;-78
2022/05/07 19:41:33;;;;;;;9.20;8.27;;;;;;;16.20;56.77;97135.03;6277797;22;20107;-78
2022/05/07 19:44:01;;;;;;;8.38;7.55;;;;;;;16.19;57.21;97129.97;6277838;22;20020;-78
2022/05/07 19:46:29;;;;;;;7.60;6.90;;;;;;;16.20;59.83;97134.22;6278165;22;20115;-78
2022/05/07 19:48:57;;;;;;;9.52;8.55;;;;;;;16.24;58.94;97140.69;6277675;22;20077;-78
2022/05/07 19:51:25;;;;;;;8.75;7.85;;;;;;;16.23;59.01;97132.00;6284779;22;20098;-78
2022/05/07 19:53:54;;;;;;;9.68;8.18;;;;;;;16.24;58.82;97138.06;6285786;22;20051;-78
2022/05/07 19:56:23;;;;;;;9.00;8.10;;;;;;;16.25;58.72;97144.94;6285323;22;20031;-78
2022/05/07 19:58:51;;;;;;;8.13;7.43;;;;;;;16.21;57.74;97144.53;6277525;22;20016;-78
2022/05/07 20:01:19;;;;;;;8.30;7.50;;;;;;;16.19;58.89;97140.50;6278067;22;20124;-78
2022/05/07 20:04:07;;;;;;;8.23;7.47;;;;;;;16.18;58.35;97146.75;6277550;22;20359;-78
2022/05/07 20:06:35;;;;;;;10.07;7.88;;;;;;;16.17;59.55;97153.06;6277340;22;20030;-78
2022/05/07 20:09:03;;;;;;;9.43;8.15;;;;;;;16.14;58.64;97156.09;6278038;22;20020;-77
2022/05/07 20:18:13;;;;;;;9.45;7.53;;;;;;;15.98;58.21;97154.66;6265824;22;20103;-80
2022/05/07 20:23:52;;;;;;;9.00;7.30;;;;;;;15.90;59.09;97160.94;6278076;22;20020;-79
2022/05/07 20:26:45;;;;;;;9.15;7.13;;;;;;;15.88;58.92;97170.88;6279406;22;20020;-79
2022/05/07 20:32:16;;;;;;;8.10;7.30;;;;;;;15.79;58.83;97166.81;6279072;22;20054;-78
2022/05/07 20:34:46;;;;;;;10.15;8.85;;;;;;;15.73;58.77;97167.63;6280035;22;20012;-78
2022/05/07 20:37:21;;;;;;;9.30;8.27;;;;;;;15.68;59.33;97164.72;6278940;22;20045;-78
2022/05/07 20:39:52;;;;;;;9.32;8.40;;;;;;;15.61;58.97;97165.53;6278381;22;20042;-78
2022/05/07 20:42:24;;;;;;;9.80;7.30;;;;;;;15.56;59.42;97164.50;6278462;22;20069;-78
2022/05/07 20:47:39;;;;;;;9.95;7.75;;;;;;;15.48;59.31;97170.78;6218046;22;20447;-78
2022/05/07 20:50:12;;;;;;;8.43;7.63;;;;;;;15.41;59.22;97169.94;6279144;22;20012;-78
2022/05/07 20:52:59;;;;;;;8.68;7.88;;;;;;;15.32;59.58;97168.50;6279345;22;20020;-78
2022/05/07 20:55:36;;;;;;;9.90;7.60;;;;;;;15.23;59.92;97176.53;6279392;22;20039;-78
2022/05/07 20:58:14;;;;;;;10.20;7.55;;;;;;;15.14;60.06;97169.84;6255014;22;20098;-78
2022/05/07 21:00:43;;;;;;;8.70;7.90;;;;;;;15.08;60.33;97175.88;6279219;22;20090;-79